sensor_id;sensor_type;location;lat;lon;timestamp;temperature;humidity
35559;DHT22;21661;50.794;-1.066;2022-08-19T00:01:54;20.40;99.90
35559;DHT22;21661;50.794;-1.066;2022-08-19T00:04:24;20.40;99.90
35559;DHT22;21661;50.794;-1.066;2022-08-19T00:06:51;20.30;99.90
35559;DHT22;21661;50.794;-1.066;2022-08-19T00:09:19;20.30;99.90
35559;DHT22;21661;50.794;-1.066;2022-08-19T00:11:46;20.30;99.90
35559;DHT22;21661;50.794;-1.066;2022-08-19T00:14:13;20.30;99.90
35559;DHT22;21661;50.794;-1.066;2022-08-19T00:16:41;20.20;99.90
35559;DHT22;21661;50.794;-1.066;2022-08-19T00:19:09;20.20;99.90
35559;DHT22;21661;50.794;-1.066;2022-08-19T00:21:35;20.10;99.90
35559;DHT22;21661;50.794;-1.066;2022-08-19T00:24:06;20.10;99.90
35559;DHT22;21661;50.794;-1.066;2022-08-19T00:26:32;20.10;99.90
35559;DHT22;21661;50.794;-1.066;2022-08-19T00:28:58;20.10;99.90
35559;DHT22;21661;50.794;-1.066;2022-08-19T00:31:26;20.10;99.90
35559;DHT22;21661;50.794;-1.066;2022-08-19T00:33:53;20.10;99.90
35559;DHT22;21661;50.794;-1.066;2022-08-19T00:36:20;20.10;99.90
35559;DHT22;21661;50.794;-1.066;2022-08-19T00:38:46;20.20;99.90
35559;DHT22;21661;50.794;-1.066;2022-08-19T00:41:17;20.20;99.90
35559;DHT22;21661;50.794;-1.066;2022-08-19T00:44:04;20.20;99.90
35559;DHT22;21661;50.794;-1.066;2022-08-19T00:46:31;20.20;99.90
35559;DHT22;21661;50.794;-1.066;2022-08-19T00:48:59;20.20;99.90
35559;DHT22;21661;50.794;-1.066;2022-08-19T00:51:27;20.20;99.90
35559;DHT22;21661;50.794;-1.066;2022-08-19T00:53:55;20.20;99.90
35559;DHT22;21661;50.794;-1.066;2022-08-19T00:56:22;20.20;99.90
35559;DHT22;21661;50.794;-1.066;2022-08-19T00:58:48;20.30;99.90
35559;DHT22;21661;50.794;-1.066;2022-08-19T01:01:14;20.20;99.90
35559;DHT22;21661;50.794;-1.066;2022-08-19T01:03:40;20.30;99.90
35559;DHT22;21661;50.794;-1.066;2022-08-19T01:06:06;20.30;99.90
35559;DHT22;21661;50.794;-1.066;2022-08-19T01:08:33;20.30;99.90
35559;DHT22;21661;50.794;-1.066;2022-08-19T01:10:59;20.30;99.90
35559;DHT22;21661;50.794;-1.066;2022-08-19T01:13:30;20.30;99.90
35559;DHT22;21661;50.794;-1.066;2022-08-19T01:16:04;20.30;99.90
35559;DHT22;21661;50.794;-1.066;2022-08-19T01:18:32;20.30;99.90
35559;DHT22;21661;50.794;-1.066;2022-08-19T01:21:03;20.30;99.90
35559;DHT22;21661;50.794;-1.066;2022-08-19T01:23:30;20.30;99.90
35559;DHT22;21661;50.794;-1.066;2022-08-19T01:26:18;20.30;99.90
35559;DHT22;21661;50.794;-1.066;2022-08-19T01:28:45;20.30;99.90
35559;DHT22;21661;50.794;-1.066;2022-08-19T01:31:20;20.30;99.90
35559;DHT22;21661;50.794;-1.066;2022-08-19T01:33:47;20.30;99.90
35559;DHT22;21661;50.794;-1.066;2022-08-19T01:36:39;20.30;99.90
35559;DHT22;21661;50.794;-1.066;2022-08-19T01:39:05;20.30;99.90
35559;DHT22;21661;50.794;-1.066;2022-08-19T01:41:33;20.30;99.90
35559;DHT22;21661;50.794;-1.066;2022-08-19T01:43:59;20.30;99.90
35559;DHT22;21661;50.794;-1.066;2022-08-19T01:46:26;20.30;99.90
35559;DHT22;21661;50.794;-1.066;2022-08-19T01:48:52;20.30;99.90
35559;DHT22;21661;50.794;-1.066;2022-08-19T01:51:18;20.30;99.90
35559;DHT22;21661;50.794;-1.066;2022-08-19T01:53:47;20.30;99.90
35559;DHT22;21661;50.794;-1.066;2022-08-19T01:56:13;20.30;99.90
35559;DHT22;21661;50.794;-1.066;2022-08-19T01:58:41;20.30;99.90
35559;DHT22;21661;50.794;-1.066;2022-08-19T02:01:11;20.30;99.90
35559;DHT22;21661;50.794;-1.066;2022-08-19T02:03:37;20.30;99.90
35559;DHT22;21661;50.794;-1.066;2022-08-19T02:06:03;20.30;99.90
35559;DHT22;21661;50.794;-1.066;2022-08-19T02:08:31;20.30;99.90
35559;DHT22;21661;50.794;-1.066;2022-08-19T02:10:57;20.30;99.90
35559;DHT22;21661;50.794;-1.066;2022-08-19T02:13:24;20.30;99.90
35559;DHT22;21661;50.794;-1.066;2022-08-19T02:15:50;20.30;99.90
35559;DHT22;21661;50.794;-1.066;2022-08-19T02:18:16;20.30;99.90
35559;DHT22;21661;50.794;-1.066;2022-08-19T02:20:43;20.30;99.90
35559;DHT22;21661;50.794;-1.066;2022-08-19T02:23:10;20.20;99.90
35559;DHT22;21661;50.794;-1.066;2022-08-19T02:25:37;20.20;99.90
35559;DHT22;21661;50.794;-1.066;2022-08-19T02:28:03;20.20;99.90
35559;DHT22;21661;50.794;-1.066;2022-08-19T02:30:30;20.30;99.90
35559;DHT22;21661;50.794;-1.066;2022-08-19T02:32:56;20.30;99.90
35559;DHT22;21661;50.794;-1.066;2022-08-19T02:35:21;20.20;99.90
35559;DHT22;21661;50.794;-1.066;2022-08-19T02:37:47;20.20;99.90
35559;DHT22;21661;50.794;-1.066;2022-08-19T02:40:33;20.20;99.90
35559;DHT22;21661;50.794;-1.066;2022-08-19T02:43:03;20.20;99.90
35559;DHT22;21661;50.794;-1.066;2022-08-19T02:45:36;20.20;99.90
35559;DHT22;21661;50.794;-1.066;2022-08-19T02:48:02;20.20;99.90
35559;DHT22;21661;50.794;-1.066;2022-08-19T02:50:28;20.20;99.90
35559;DHT22;21661;50.794;-1.066;2022-08-19T02:52:54;20.20;99.90
35559;DHT22;21661;50.794;-1.066;2022-08-19T02:55:20;20.20;99.90
35559;DHT22;21661;50.794;-1.066;2022-08-19T02:57:46;20.10;99.90
35559;DHT22;21661;50.794;-1.066;2022-08-19T03:00:12;20.10;99.90
35559;DHT22;21661;50.794;-1.066;2022-08-19T03:02:39;20.10;99.90
35559;DHT22;21661;50.794;-1.066;2022-08-19T03:05:07;20.20;99.90
35559;DHT22;21661;50.794;-1.066;2022-08-19T03:07:33;20.10;99.90
35559;DHT22;21661;50.794;-1.066;2022-08-19T03:09:59;20.00;99.90
35559;DHT22;21661;50.794;-1.066;2022-08-19T03:12:24;20.10;99.90
35559;DHT22;21661;50.794;-1.066;2022-08-19T03:14:50;20.10;99.90
35559;DHT22;21661;50.794;-1.066;2022-08-19T03:17:17;20.00;99.90
35559;DHT22;21661;50.794;-1.066;2022-08-19T03:19:43;20.00;99.90
35559;DHT22;21661;50.794;-1.066;2022-08-19T03:22:09;20.10;99.90
35559;DHT22;21661;50.794;-1.066;2022-08-19T03:24:35;20.00;99.90
35559;DHT22;21661;50.794;-1.066;2022-08-19T03:27:01;20.00;99.90
35559;DHT22;21661;50.794;-1.066;2022-08-19T03:29:31;20.10;99.90
35559;DHT22;21661;50.794;-1.066;2022-08-19T03:32:03;20.00;99.90
35559;DHT22;21661;50.794;-1.066;2022-08-19T03:34:31;20.00;99.90
35559;DHT22;21661;50.794;-1.066;2022-08-19T03:36:59;20.00;99.90
35559;DHT22;21661;50.794;-1.066;2022-08-19T03:39:26;20.00;99.90
35559;DHT22;21661;50.794;-1.066;2022-08-19T03:41:53;20.00;99.90
35559;DHT22;21661;50.794;-1.066;2022-08-19T03:44:22;20.00;99.90
35559;DHT22;21661;50.794;-1.066;2022-08-19T03:46:51;20.10;99.90
35559;DHT22;21661;50.794;-1.066;2022-08-19T03:49:17;20.00;99.90
35559;DHT22;21661;50.794;-1.066;2022-08-19T03:51:44;19.90;99.90
35559;DHT22;21661;50.794;-1.066;2022-08-19T03:54:12;20.00;99.90
35559;DHT22;21661;50.794;-1.066;2022-08-19T03:56:40;19.90;99.90
35559;DHT22;21661;50.794;-1.066;2022-08-19T03:59:10;20.00;99.90
35559;DHT22;21661;50.794;-1.066;2022-08-19T04:01:36;20.00;99.90
35559;DHT22;21661;50.794;-1.066;2022-08-19T04:04:02;20.00;99.90
35559;DHT22;21661;50.794;-1.066;2022-08-19T04:06:34;20.00;99.90
35559;DHT22;21661;50.794;-1.066;2022-08-19T04:09:03;20.00;99.90
35559;DHT22;21661;50.794;-1.066;2022-08-19T04:11:43;20.10;99.90
35559;DHT22;21661;50.794;-1.066;2022-08-19T04:14:14;20.10;99.90
35559;DHT22;21661;50.794;-1.066;2022-08-19T04:16:40;20.00;99.90
35559;DHT22;21661;50.794;-1.066;2022-08-19T04:19:06;20.00;99.90
35559;DHT22;21661;50.794;-1.066;2022-08-19T04:21:33;20.00;99.90
35559;DHT22;21661;50.794;-1.066;2022-08-19T04:24:00;20.10;99.90
35559;DHT22;21661;50.794;-1.066;2022-08-19T04:26:28;20.00;99.90
35559;DHT22;21661;50.794;-1.066;2022-08-19T04:28:59;20.00;99.90
35559;DHT22;21661;50.794;-1.066;2022-08-19T04:31:27;20.00;99.90
35559;DHT22;21661;50.794;-1.066;2022-08-19T04:33:58;20.00;99.90
35559;DHT22;21661;50.794;-1.066;2022-08-19T04:36:25;20.00;99.90
35559;DHT22;21661;50.794;-1.066;2022-08-19T04:38:55;19.90;99.90
35559;DHT22;21661;50.794;-1.066;2022-08-19T04:41:21;19.90;99.90
35559;DHT22;21661;50.794;-1.066;2022-08-19T04:44:06;19.90;99.90
35559;DHT22;21661;50.794;-1.066;2022-08-19T04:46:33;19.90;99.90
35559;DHT22;21661;50.794;-1.066;2022-08-19T04:48:59;20.00;99.90
35559;DHT22;21661;50.794;-1.066;2022-08-19T04:51:25;19.90;99.90
35559;DHT22;21661;50.794;-1.066;2022-08-19T04:53:52;20.00;99.90
35559;DHT22;21661;50.794;-1.066;2022-08-19T04:56:19;20.00;99.90
35559;DHT22;21661;50.794;-1.066;2022-08-19T04:58:49;20.00;99.90
35559;DHT22;21661;50.794;-1.066;2022-08-19T05:01:25;20.00;99.90
35559;DHT22;21661;50.794;-1.066;2022-08-19T05:03:52;20.00;99.90
35559;DHT22;21661;50.794;-1.066;2022-08-19T05:06:20;20.00;99.90
35559;DHT22;21661;50.794;-1.066;2022-08-19T05:08:47;20.00;99.90
35559;DHT22;21661;50.794;-1.066;2022-08-19T05:11:14;20.10;99.90
35559;DHT22;21661;50.794;-1.066;2022-08-19T05:13:41;20.10;99.90
35559;DHT22;21661;50.794;-1.066;2022-08-19T05:16:10;20.00;99.90
35559;DHT22;21661;50.794;-1.066;2022-08-19T05:18:36;20.00;99.90
35559;DHT22;21661;50.794;-1.066;2022-08-19T05:21:22;20.00;99.90
35559;DHT22;21661;50.794;-1.066;2022-08-19T05:24:07;20.10;99.90
35559;DHT22;21661;50.794;-1.066;2022-08-19T05:26:38;20.10;99.90
35559;DHT22;21661;50.794;-1.066;2022-08-19T05:29:05;20.10;99.90
35559;DHT22;21661;50.794;-1.066;2022-08-19T05:31:33;20.10;99.90
35559;DHT22;21661;50.794;-1.066;2022-08-19T05:33:59;20.10;99.90
35559;DHT22;21661;50.794;-1.066;2022-08-19T05:36:26;20.10;99.90
35559;DHT22;21661;50.794;-1.066;2022-08-19T05:38:53;20.10;99.90
35559;DHT22;21661;50.794;-1.066;2022-08-19T05:41:20;20.10;99.90
35559;DHT22;21661;50.794;-1.066;2022-08-19T05:43:46;20.10;99.90
35559;DHT22;21661;50.794;-1.066;2022-08-19T05:46:21;20.10;99.90
35559;DHT22;21661;50.794;-1.066;2022-08-19T05:48:48;20.10;99.90
35559;DHT22;21661;50.794;-1.066;2022-08-19T05:51:14;20.10;99.90
35559;DHT22;21661;50.794;-1.066;2022-08-19T05:53:42;20.10;99.90
35559;DHT22;21661;50.794;-1.066;2022-08-19T05:56:11;20.10;99.90
35559;DHT22;21661;50.794;-1.066;2022-08-19T05:58:38;20.10;99.90
35559;DHT22;21661;50.794;-1.066;2022-08-19T06:01:09;20.10;99.90
35559;DHT22;21661;50.794;-1.066;2022-08-19T06:03:35;20.20;99.90
35559;DHT22;21661;50.794;-1.066;2022-08-19T06:06:04;20.20;99.90
35559;DHT22;21661;50.794;-1.066;2022-08-19T06:08:31;20.20;99.90
35559;DHT22;21661;50.794;-1.066;2022-08-19T06:10:57;20.20;99.90
35559;DHT22;21661;50.794;-1.066;2022-08-19T06:13:23;20.20;99.90
35559;DHT22;21661;50.794;-1.066;2022-08-19T06:15:49;20.20;99.90
35559;DHT22;21661;50.794;-1.066;2022-08-19T06:18:15;20.20;99.90
35559;DHT22;21661;50.794;-1.066;2022-08-19T06:20:42;20.30;99.90
35559;DHT22;21661;50.794;-1.066;2022-08-19T06:23:08;20.20;99.90
35559;DHT22;21661;50.794;-1.066;2022-08-19T06:25:35;20.30;99.90
35559;DHT22;21661;50.794;-1.066;2022-08-19T06:28:01;20.30;99.90
35559;DHT22;21661;50.794;-1.066;2022-08-19T06:30:27;20.30;99.90
35559;DHT22;21661;50.794;-1.066;2022-08-19T06:32:53;20.30;99.90
35559;DHT22;21661;50.794;-1.066;2022-08-19T06:35:19;20.40;99.90
35559;DHT22;21661;50.794;-1.066;2022-08-19T06:37:44;20.40;99.90
35559;DHT22;21661;50.794;-1.066;2022-08-19T06:40:11;20.50;99.90
35559;DHT22;21661;50.794;-1.066;2022-08-19T06:42:38;20.50;99.90
35559;DHT22;21661;50.794;-1.066;2022-08-19T06:45:05;20.50;99.90
35559;DHT22;21661;50.794;-1.066;2022-08-19T06:47:33;20.60;99.90
35559;DHT22;21661;50.794;-1.066;2022-08-19T06:50:00;20.60;99.90
35559;DHT22;21661;50.794;-1.066;2022-08-19T06:52:34;20.60;99.90
35559;DHT22;21661;50.794;-1.066;2022-08-19T06:55:01;20.50;99.90
35559;DHT22;21661;50.794;-1.066;2022-08-19T06:57:27;20.30;99.90
35559;DHT22;21661;50.794;-1.066;2022-08-19T06:59:58;20.20;99.90
35559;DHT22;21661;50.794;-1.066;2022-08-19T07:02:26;20.10;99.90
35559;DHT22;21661;50.794;-1.066;2022-08-19T07:04:52;20.00;99.90
35559;DHT22;21661;50.794;-1.066;2022-08-19T07:07:19;19.90;99.90
35559;DHT22;21661;50.794;-1.066;2022-08-19T07:09:46;19.90;99.90
35559;DHT22;21661;50.794;-1.066;2022-08-19T07:12:13;19.70;99.90
35559;DHT22;21661;50.794;-1.066;2022-08-19T07:14:41;19.70;99.90
35559;DHT22;21661;50.794;-1.066;2022-08-19T07:17:10;19.60;99.90
35559;DHT22;21661;50.794;-1.066;2022-08-19T07:19:38;19.60;99.90
35559;DHT22;21661;50.794;-1.066;2022-08-19T07:22:06;19.50;99.90
35559;DHT22;21661;50.794;-1.066;2022-08-19T07:24:33;19.50;99.90
35559;DHT22;21661;50.794;-1.066;2022-08-19T07:27:01;19.50;99.90
35559;DHT22;21661;50.794;-1.066;2022-08-19T07:29:29;19.50;99.90
35559;DHT22;21661;50.794;-1.066;2022-08-19T07:31:56;19.50;99.90
35559;DHT22;21661;50.794;-1.066;2022-08-19T07:34:25;19.50;99.90
35559;DHT22;21661;50.794;-1.066;2022-08-19T07:36:52;19.40;99.90
35559;DHT22;21661;50.794;-1.066;2022-08-19T07:39:21;19.50;99.90
35559;DHT22;21661;50.794;-1.066;2022-08-19T07:41:48;19.40;99.90
35559;DHT22;21661;50.794;-1.066;2022-08-19T07:44:17;19.40;99.90
35559;DHT22;21661;50.794;-1.066;2022-08-19T07:46:47;19.30;99.90
35559;DHT22;21661;50.794;-1.066;2022-08-19T07:49:13;19.30;99.90
35559;DHT22;21661;50.794;-1.066;2022-08-19T07:51:47;19.30;99.90
35559;DHT22;21661;50.794;-1.066;2022-08-19T07:54:13;19.30;99.90
35559;DHT22;21661;50.794;-1.066;2022-08-19T07:56:39;19.30;99.90
35559;DHT22;21661;50.794;-1.066;2022-08-19T07:59:05;19.20;99.90
35559;DHT22;21661;50.794;-1.066;2022-08-19T08:01:31;19.20;99.90
35559;DHT22;21661;50.794;-1.066;2022-08-19T08:03:58;19.20;99.90
35559;DHT22;21661;50.794;-1.066;2022-08-19T08:06:43;19.20;99.90
35559;DHT22;21661;50.794;-1.066;2022-08-19T08:09:35;19.10;99.90
35559;DHT22;21661;50.794;-1.066;2022-08-19T08:12:27;19.00;99.90
35559;DHT22;21661;50.794;-1.066;2022-08-19T08:15:02;19.00;99.90
35559;DHT22;21661;50.794;-1.066;2022-08-19T08:17:30;18.90;99.90
35559;DHT22;21661;50.794;-1.066;2022-08-19T08:19:57;18.70;99.90
35559;DHT22;21661;50.794;-1.066;2022-08-19T08:22:23;18.60;99.90
35559;DHT22;21661;50.794;-1.066;2022-08-19T08:25:17;18.50;99.90
35559;DHT22;21661;50.794;-1.066;2022-08-19T08:27:45;18.40;99.90
35559;DHT22;21661;50.794;-1.066;2022-08-19T08:30:15;18.30;99.90
35559;DHT22;21661;50.794;-1.066;2022-08-19T08:32:42;18.20;99.90
35559;DHT22;21661;50.794;-1.066;2022-08-19T08:35:11;18.20;99.90
35559;DHT22;21661;50.794;-1.066;2022-08-19T08:37:38;18.20;99.90
35559;DHT22;21661;50.794;-1.066;2022-08-19T08:40:18;18.30;99.90
35559;DHT22;21661;50.794;-1.066;2022-08-19T08:42:55;18.40;99.90
35559;DHT22;21661;50.794;-1.066;2022-08-19T08:45:26;18.40;99.90
35559;DHT22;21661;50.794;-1.066;2022-08-19T08:47:53;18.50;99.90
35559;DHT22;21661;50.794;-1.066;2022-08-19T08:50:39;18.40;99.90
35559;DHT22;21661;50.794;-1.066;2022-08-19T08:53:08;18.40;99.90
35559;DHT22;21661;50.794;-1.066;2022-08-19T08:55:36;18.40;99.90
35559;DHT22;21661;50.794;-1.066;2022-08-19T08:58:10;18.30;99.90
35559;DHT22;21661;50.794;-1.066;2022-08-19T09:00:45;18.40;99.90
35559;DHT22;21661;50.794;-1.066;2022-08-19T09:03:21;18.30;99.90
35559;DHT22;21661;50.794;-1.066;2022-08-19T09:06:04;18.30;99.90
35559;DHT22;21661;50.794;-1.066;2022-08-19T09:11:10;18.20;99.90
35559;DHT22;21661;50.794;-1.066;2022-08-19T09:16:26;18.30;99.90
35559;DHT22;21661;50.794;-1.066;2022-08-19T09:18:56;18.30;99.90
35559;DHT22;21661;50.794;-1.066;2022-08-19T09:21:24;18.30;99.90
35559;DHT22;21661;50.794;-1.066;2022-08-19T09:23:51;18.30;99.90
35559;DHT22;21661;50.794;-1.066;2022-08-19T09:26:19;18.30;99.90
35559;DHT22;21661;50.794;-1.066;2022-08-19T09:28:48;18.30;99.90
35559;DHT22;21661;50.794;-1.066;2022-08-19T09:31:24;18.30;99.90
35559;DHT22;21661;50.794;-1.066;2022-08-19T09:33:51;18.30;99.90
35559;DHT22;21661;50.794;-1.066;2022-08-19T09:36:19;18.30;99.90
35559;DHT22;21661;50.794;-1.066;2022-08-19T09:38:47;18.30;99.90
35559;DHT22;21661;50.794;-1.066;2022-08-19T09:41:17;18.30;99.90
35559;DHT22;21661;50.794;-1.066;2022-08-19T09:43:45;18.30;99.90
35559;DHT22;21661;50.794;-1.066;2022-08-19T09:46:12;18.30;99.90
35559;DHT22;21661;50.794;-1.066;2022-08-19T09:48:40;18.40;99.90
35559;DHT22;21661;50.794;-1.066;2022-08-19T09:51:11;18.40;99.90
35559;DHT22;21661;50.794;-1.066;2022-08-19T09:53:41;18.50;99.90
35559;DHT22;21661;50.794;-1.066;2022-08-19T09:56:07;18.50;99.90
35559;DHT22;21661;50.794;-1.066;2022-08-19T09:58:33;18.50;99.90
35559;DHT22;21661;50.794;-1.066;2022-08-19T10:01:01;18.50;99.90
35559;DHT22;21661;50.794;-1.066;2022-08-19T10:03:28;18.60;99.90
35559;DHT22;21661;50.794;-1.066;2022-08-19T10:05:55;18.80;99.90
35559;DHT22;21661;50.794;-1.066;2022-08-19T10:08:27;18.80;99.90
35559;DHT22;21661;50.794;-1.066;2022-08-19T10:10:55;18.90;99.90
35559;DHT22;21661;50.794;-1.066;2022-08-19T10:13:23;18.90;99.90
35559;DHT22;21661;50.794;-1.066;2022-08-19T10:15:51;18.90;99.90
35559;DHT22;21661;50.794;-1.066;2022-08-19T10:18:19;19.00;99.90
35559;DHT22;21661;50.794;-1.066;2022-08-19T10:20:47;19.00;99.90
35559;DHT22;21661;50.794;-1.066;2022-08-19T10:23:14;19.00;99.90
35559;DHT22;21661;50.794;-1.066;2022-08-19T10:25:41;19.00;99.90
35559;DHT22;21661;50.794;-1.066;2022-08-19T10:28:08;19.10;99.90
35559;DHT22;21661;50.794;-1.066;2022-08-19T10:30:38;19.20;99.90
35559;DHT22;21661;50.794;-1.066;2022-08-19T10:33:05;19.20;99.90
35559;DHT22;21661;50.794;-1.066;2022-08-19T10:35:31;19.10;99.90
35559;DHT22;21661;50.794;-1.066;2022-08-19T10:37:57;19.10;99.90
35559;DHT22;21661;50.794;-1.066;2022-08-19T10:40:26;19.00;99.90
35559;DHT22;21661;50.794;-1.066;2022-08-19T10:42:53;19.00;99.90
35559;DHT22;21661;50.794;-1.066;2022-08-19T10:45:21;19.10;99.90
35559;DHT22;21661;50.794;-1.066;2022-08-19T10:47:53;19.20;99.90
35559;DHT22;21661;50.794;-1.066;2022-08-19T10:50:19;19.20;99.90
35559;DHT22;21661;50.794;-1.066;2022-08-19T10:53:06;19.20;99.90
35559;DHT22;21661;50.794;-1.066;2022-08-19T10:55:34;19.30;99.90
35559;DHT22;21661;50.794;-1.066;2022-08-19T10:58:20;19.40;99.90
35559;DHT22;21661;50.794;-1.066;2022-08-19T11:01:06;19.40;99.90
35559;DHT22;21661;50.794;-1.066;2022-08-19T11:03:31;19.50;99.90
35559;DHT22;21661;50.794;-1.066;2022-08-19T11:06:04;19.60;99.90
35559;DHT22;21661;50.794;-1.066;2022-08-19T11:08:30;19.70;99.90
35559;DHT22;21661;50.794;-1.066;2022-08-19T11:10:59;19.70;99.90
35559;DHT22;21661;50.794;-1.066;2022-08-19T11:13:32;19.80;99.90
35559;DHT22;21661;50.794;-1.066;2022-08-19T11:16:20;19.80;99.90
35559;DHT22;21661;50.794;-1.066;2022-08-19T11:18:50;19.80;99.90
35559;DHT22;21661;50.794;-1.066;2022-08-19T11:21:23;19.90;99.90
35559;DHT22;21661;50.794;-1.066;2022-08-19T11:23:51;19.90;99.90
35559;DHT22;21661;50.794;-1.066;2022-08-19T11:26:19;20.00;99.90
35559;DHT22;21661;50.794;-1.066;2022-08-19T11:28:45;20.00;99.90
35559;DHT22;21661;50.794;-1.066;2022-08-19T11:31:20;20.20;99.90
35559;DHT22;21661;50.794;-1.066;2022-08-19T11:33:47;20.20;99.90
35559;DHT22;21661;50.794;-1.066;2022-08-19T11:36:16;20.40;99.90
35559;DHT22;21661;50.794;-1.066;2022-08-19T11:38:43;20.50;99.90
35559;DHT22;21661;50.794;-1.066;2022-08-19T11:41:10;20.60;99.90
35559;DHT22;21661;50.794;-1.066;2022-08-19T11:43:37;20.70;99.90
35559;DHT22;21661;50.794;-1.066;2022-08-19T11:46:07;20.60;99.90
35559;DHT22;21661;50.794;-1.066;2022-08-19T11:48:34;20.60;99.90
35559;DHT22;21661;50.794;-1.066;2022-08-19T11:51:04;20.50;99.90
35559;DHT22;21661;50.794;-1.066;2022-08-19T11:53:32;20.60;99.90
35559;DHT22;21661;50.794;-1.066;2022-08-19T11:55:59;20.60;99.90
35559;DHT22;21661;50.794;-1.066;2022-08-19T11:58:25;20.70;99.90
35559;DHT22;21661;50.794;-1.066;2022-08-19T12:00:51;20.60;99.90
35559;DHT22;21661;50.794;-1.066;2022-08-19T12:03:17;20.60;99.90
35559;DHT22;21661;50.794;-1.066;2022-08-19T12:05:43;20.70;99.90
35559;DHT22;21661;50.794;-1.066;2022-08-19T12:08:09;20.80;99.90
35559;DHT22;21661;50.794;-1.066;2022-08-19T12:10:37;20.80;99.90
35559;DHT22;21661;50.794;-1.066;2022-08-19T12:13:03;20.90;99.90
35559;DHT22;21661;50.794;-1.066;2022-08-19T12:15:29;20.90;99.90
35559;DHT22;21661;50.794;-1.066;2022-08-19T12:17:55;21.00;99.90
35559;DHT22;21661;50.794;-1.066;2022-08-19T12:20:23;21.00;99.90
35559;DHT22;21661;50.794;-1.066;2022-08-19T12:22:50;21.00;99.90
35559;DHT22;21661;50.794;-1.066;2022-08-19T12:25:17;21.10;99.90
35559;DHT22;21661;50.794;-1.066;2022-08-19T12:27:42;21.20;99.90
35559;DHT22;21661;50.794;-1.066;2022-08-19T12:30:10;21.40;99.90
35559;DHT22;21661;50.794;-1.066;2022-08-19T12:32:37;21.50;99.90
35559;DHT22;21661;50.794;-1.066;2022-08-19T12:35:04;21.60;99.90
35559;DHT22;21661;50.794;-1.066;2022-08-19T12:37:29;21.70;99.90
35559;DHT22;21661;50.794;-1.066;2022-08-19T12:39:57;21.70;99.90
35559;DHT22;21661;50.794;-1.066;2022-08-19T12:42:22;21.90;99.90
35559;DHT22;21661;50.794;-1.066;2022-08-19T12:44:48;21.90;99.90
35559;DHT22;21661;50.794;-1.066;2022-08-19T12:47:14;22.00;99.90
35559;DHT22;21661;50.794;-1.066;2022-08-19T12:49:40;22.10;99.90
35559;DHT22;21661;50.794;-1.066;2022-08-19T12:52:07;22.10;99.90
35559;DHT22;21661;50.794;-1.066;2022-08-19T12:54:35;22.20;99.90
35559;DHT22;21661;50.794;-1.066;2022-08-19T12:57:05;22.30;99.90
35559;DHT22;21661;50.794;-1.066;2022-08-19T12:59:33;22.30;99.90
35559;DHT22;21661;50.794;-1.066;2022-08-19T13:02:00;22.50;99.90
35559;DHT22;21661;50.794;-1.066;2022-08-19T13:04:26;22.60;99.90
35559;DHT22;21661;50.794;-1.066;2022-08-19T13:06:52;22.70;99.90
35559;DHT22;21661;50.794;-1.066;2022-08-19T13:09:18;22.80;99.90
35559;DHT22;21661;50.794;-1.066;2022-08-19T13:11:43;22.90;99.90
35559;DHT22;21661;50.794;-1.066;2022-08-19T13:14:10;22.90;99.90
35559;DHT22;21661;50.794;-1.066;2022-08-19T13:16:37;23.00;99.90
35559;DHT22;21661;50.794;-1.066;2022-08-19T13:19:04;23.00;99.90
35559;DHT22;21661;50.794;-1.066;2022-08-19T13:21:31;23.00;99.90
35559;DHT22;21661;50.794;-1.066;2022-08-19T13:23:57;23.10;99.90
35559;DHT22;21661;50.794;-1.066;2022-08-19T13:26:24;23.10;99.90
35559;DHT22;21661;50.794;-1.066;2022-08-19T13:28:49;23.20;99.90
35559;DHT22;21661;50.794;-1.066;2022-08-19T13:31:35;23.00;99.90
35559;DHT22;21661;50.794;-1.066;2022-08-19T13:34:35;23.10;99.90
35559;DHT22;21661;50.794;-1.066;2022-08-19T13:37:03;23.00;99.90
35559;DHT22;21661;50.794;-1.066;2022-08-19T13:39:32;23.00;99.90
35559;DHT22;21661;50.794;-1.066;2022-08-19T13:41:59;23.20;99.90
35559;DHT22;21661;50.794;-1.066;2022-08-19T13:44:26;23.30;99.90
35559;DHT22;21661;50.794;-1.066;2022-08-19T13:46:59;23.30;99.90
35559;DHT22;21661;50.794;-1.066;2022-08-19T13:49:27;23.30;99.90
35559;DHT22;21661;50.794;-1.066;2022-08-19T13:51:55;23.50;99.90
35559;DHT22;21661;50.794;-1.066;2022-08-19T13:54:21;23.50;99.90
35559;DHT22;21661;50.794;-1.066;2022-08-19T13:56:47;23.60;99.90
35559;DHT22;21661;50.794;-1.066;2022-08-19T13:59:13;23.60;99.90
35559;DHT22;21661;50.794;-1.066;2022-08-19T14:01:39;23.70;99.90
35559;DHT22;21661;50.794;-1.066;2022-08-19T14:04:06;23.70;99.90
35559;DHT22;21661;50.794;-1.066;2022-08-19T14:06:34;23.80;99.90
35559;DHT22;21661;50.794;-1.066;2022-08-19T14:09:00;23.80;99.90
35559;DHT22;21661;50.794;-1.066;2022-08-19T14:11:27;24.00;99.90
35559;DHT22;21661;50.794;-1.066;2022-08-19T14:13:53;24.00;99.90
35559;DHT22;21661;50.794;-1.066;2022-08-19T14:16:20;24.00;99.90
35559;DHT22;21661;50.794;-1.066;2022-08-19T14:18:47;24.00;99.90
35559;DHT22;21661;50.794;-1.066;2022-08-19T14:21:19;24.00;99.90
35559;DHT22;21661;50.794;-1.066;2022-08-19T14:23:46;24.00;99.90
35559;DHT22;21661;50.794;-1.066;2022-08-19T14:26:15;24.00;99.90
35559;DHT22;21661;50.794;-1.066;2022-08-19T14:28:42;24.00;99.90
35559;DHT22;21661;50.794;-1.066;2022-08-19T14:31:10;24.10;99.90
35559;DHT22;21661;50.794;-1.066;2022-08-19T14:33:36;24.10;99.90
35559;DHT22;21661;50.794;-1.066;2022-08-19T14:36:03;24.10;99.90
35559;DHT22;21661;50.794;-1.066;2022-08-19T14:38:29;24.00;99.90
35559;DHT22;21661;50.794;-1.066;2022-08-19T14:41:06;23.90;99.90
35559;DHT22;21661;50.794;-1.066;2022-08-19T14:43:33;23.80;99.90
35559;DHT22;21661;50.794;-1.066;2022-08-19T14:46:00;23.80;99.90
35559;DHT22;21661;50.794;-1.066;2022-08-19T14:48:25;23.80;99.90
35559;DHT22;21661;50.794;-1.066;2022-08-19T14:50:52;23.90;99.90
35559;DHT22;21661;50.794;-1.066;2022-08-19T14:53:17;23.90;99.90
35559;DHT22;21661;50.794;-1.066;2022-08-19T14:55:44;23.70;99.90
35559;DHT22;21661;50.794;-1.066;2022-08-19T14:58:10;23.80;99.90
35559;DHT22;21661;50.794;-1.066;2022-08-19T15:00:36;23.80;99.90
35559;DHT22;21661;50.794;-1.066;2022-08-19T15:03:02;23.90;99.90
35559;DHT22;21661;50.794;-1.066;2022-08-19T15:05:28;23.90;99.90
35559;DHT22;21661;50.794;-1.066;2022-08-19T15:07:54;24.00;99.90
35559;DHT22;21661;50.794;-1.066;2022-08-19T15:10:22;23.80;99.90
35559;DHT22;21661;50.794;-1.066;2022-08-19T15:12:50;23.90;99.90
35559;DHT22;21661;50.794;-1.066;2022-08-19T15:15:16;23.80;99.90
35559;DHT22;21661;50.794;-1.066;2022-08-19T15:17:44;23.80;99.90
35559;DHT22;21661;50.794;-1.066;2022-08-19T15:20:12;23.70;99.90
35559;DHT22;21661;50.794;-1.066;2022-08-19T15:22:39;23.70;99.90
35559;DHT22;21661;50.794;-1.066;2022-08-19T15:25:07;23.80;99.90
35559;DHT22;21661;50.794;-1.066;2022-08-19T15:27:33;23.80;99.90
35559;DHT22;21661;50.794;-1.066;2022-08-19T15:30:00;23.90;99.90